createdAt,value
2022-12-25T00:01:57.503Z,5.70
2022-12-25T00:06:59.735Z,5.58
2022-12-25T00:12:01.339Z,5.96
2022-12-25T00:17:02.999Z,5.43
2022-12-25T00:22:04.643Z,5.21
2022-12-25T00:27:06.327Z,4.86
2022-12-25T00:32:08.150Z,4.86
2022-12-25T00:37:09.777Z,4.88
2022-12-25T00:42:20.450Z,4.70
2022-12-25T00:47:22.266Z,4.53
2022-12-25T00:52:23.895Z,4.52
2022-12-25T00:57:25.518Z,4.34
2022-12-25T01:02:27.325Z,4.36
2022-12-25T01:07:29.147Z,4.09
2022-12-25T01:12:33.225Z,4.01
2022-12-25T01:17:35.153Z,3.88
2022-12-25T01:22:36.919Z,3.80
2022-12-25T01:27:40.997Z,3.52
2022-12-25T01:32:42.619Z,3.63
2022-12-25T01:37:44.266Z,3.33
2022-12-25T01:42:45.901Z,3.25
2022-12-25T01:47:47.586Z,3.01
2022-12-25T01:52:50.677Z,2.99
2022-12-25T01:57:52.404Z,3.14
2022-12-25T02:02:54.105Z,3.10
2022-12-25T02:07:58.301Z,3.06
2022-12-25T02:13:01.196Z,3.04
2022-12-25T02:18:26.864Z,2.97
2022-12-25T02:23:34.726Z,3.03
2022-12-25T02:28:36.998Z,2.71
2022-12-25T02:34:26.050Z,2.85
2022-12-25T02:39:55.239Z,2.51
2022-12-25T02:45:15.639Z,2.38
2022-12-25T02:50:36.859Z,2.45
2022-12-25T02:56:00.284Z,2.54
2022-12-25T03:01:33.571Z,2.39
2022-12-25T03:06:44.005Z,2.32
2022-12-25T03:11:48.579Z,2.19
2022-12-25T03:16:54.152Z,2.41
2022-12-25T03:22:16.279Z,2.21
2022-12-25T03:27:17.971Z,2.13
2022-12-25T03:32:27.573Z,2.12
2022-12-25T03:38:18.596Z,2.11
2022-12-25T03:44:06.733Z,2.22
2022-12-25T03:49:43.725Z,2.14
2022-12-25T03:55:06.116Z,1.81
2022-12-25T04:00:26.817Z,1.68
2022-12-25T04:05:47.144Z,1.84
2022-12-25T04:11:07.411Z,1.71
2022-12-25T04:16:27.795Z,1.52
2022-12-25T04:21:48.165Z,1.69
2022-12-25T04:27:08.376Z,1.56
2022-12-25T04:32:28.506Z,1.61
2022-12-25T04:37:30.252Z,1.63
2022-12-25T04:42:31.874Z,1.37
2022-12-25T04:47:33.529Z,1.24
2022-12-25T04:52:40.428Z,0.99
2022-12-25T04:57:42.144Z,1.26
2022-12-25T05:02:43.846Z,1.19
2022-12-25T05:07:45.725Z,1.07
2022-12-25T05:12:47.586Z,1.02
2022-12-25T05:17:50.684Z,1.08
2022-12-25T05:22:52.273Z,1.09
2022-12-25T05:27:54.122Z,1.15
2022-12-25T05:32:55.894Z,1.01
2022-12-25T05:37:57.880Z,1.01
2022-12-25T05:42:59.712Z,0.94
2022-12-25T05:48:01.607Z,0.78
2022-12-25T05:53:08.324Z,0.65
2022-12-25T05:58:12.449Z,0.81
2022-12-25T06:03:14.235Z,0.99
2022-12-25T06:08:16.105Z,1.04
2022-12-25T06:13:17.718Z,0.73
2022-12-25T06:18:19.316Z,0.73
2022-12-25T06:23:21.055Z,0.63
2022-12-25T06:28:22.725Z,0.73
2022-12-25T06:33:24.385Z,0.59
2022-12-25T06:38:25.983Z,0.71
2022-12-25T06:43:27.535Z,0.69
2022-12-25T06:48:29.150Z,0.68
2022-12-25T06:53:37.077Z,0.40
2022-12-25T06:58:43.271Z,0.31
2022-12-25T07:03:46.751Z,0.53
2022-12-25T07:08:48.723Z,0.41
2022-12-25T07:13:50.724Z,0.62
2022-12-25T07:18:52.341Z,0.72
2022-12-25T07:23:53.969Z,0.75
2022-12-25T07:28:56.308Z,0.56
2022-12-25T07:33:58.005Z,0.81
2022-12-25T07:38:59.673Z,0.81
2022-12-25T07:44:02.516Z,0.79
2022-12-25T07:49:04.485Z,1.04
2022-12-25T07:54:06.133Z,0.89
2022-12-25T07:59:07.734Z,0.98
2022-12-25T08:04:09.729Z,1.18
2022-12-25T08:09:13.014Z,1.31
2022-12-25T08:14:14.719Z,1.17
2022-12-25T08:19:16.434Z,1.46
2022-12-25T08:24:18.173Z,1.63
2022-12-25T08:29:19.845Z,1.94
2022-12-25T08:34:21.782Z,2.24
2022-12-25T08:39:23.453Z,2.62
2022-12-25T08:44:25.088Z,2.81
2022-12-25T08:49:29.149Z,3.23
2022-12-25T08:54:33.787Z,3.57
2022-12-25T08:59:35.417Z,3.36
2022-12-25T09:04:37.036Z,3.44
2022-12-25T09:09:38.687Z,3.07
2022-12-25T09:14:40.308Z,3.98
2022-12-25T09:19:41.924Z,3.75
2022-12-25T09:24:43.844Z,3.52
2022-12-25T09:29:45.445Z,3.15
2022-12-25T09:34:47.080Z,3.33
2022-12-25T09:39:48.775Z,3.59
2022-12-25T09:45:00.484Z,3.44
2022-12-25T09:50:15.220Z,3.59
2022-12-25T09:55:23.086Z,3.84
2022-12-25T10:00:32.066Z,4.12
2022-12-25T10:05:52.991Z,4.39
2022-12-25T10:11:04.160Z,4.68
2022-12-25T10:16:38.744Z,4.65
2022-12-25T10:21:41.410Z,5.66
2022-12-25T10:26:43.162Z,10.65
2022-12-25T10:31:47.235Z,11.33
2022-12-25T10:36:50.155Z,13.23
2022-12-25T10:42:05.698Z,17.61
2022-12-25T10:47:07.312Z,15.28
2022-12-25T10:52:27.985Z,16.84
2022-12-25T10:57:29.868Z,13.69
2022-12-25T11:02:40.466Z,18.31
2022-12-25T11:07:51.328Z,19.57
2022-12-25T11:12:54.093Z,17.72
2022-12-25T11:17:55.700Z,18.42
2022-12-25T11:22:57.380Z,15.39
2022-12-25T11:28:02.506Z,12.04
2022-12-25T11:33:12.403Z,11.81
2022-12-25T11:38:14.011Z,11.28
2022-12-25T11:43:20.331Z,11.81
2022-12-25T11:48:31.620Z,11.97
2022-12-25T11:53:39.913Z,11.47
2022-12-25T11:58:55.477Z,11.24
2022-12-25T12:04:00.767Z,10.94
2022-12-25T12:09:21.479Z,10.74
2022-12-25T12:14:32.213Z,10.40
2022-12-25T12:19:34.864Z,10.59
2022-12-25T12:24:41.711Z,10.64
2022-12-25T12:29:45.617Z,10.62
2022-12-25T12:34:50.606Z,10.63
2022-12-25T12:39:56.158Z,10.70
2022-12-25T12:45:08.992Z,11.34
2022-12-25T12:50:41.141Z,11.31
2022-12-25T12:55:42.821Z,10.99
2022-12-25T13:00:52.421Z,10.71
2022-12-25T13:06:14.524Z,10.40
2022-12-25T13:11:25.525Z,10.26
2022-12-25T13:16:33.640Z,10.21
2022-12-25T13:21:35.701Z,9.91
2022-12-25T13:26:39.310Z,9.61
2022-12-25T13:31:41.519Z,9.84
2022-12-25T13:36:43.330Z,9.97
2022-12-25T13:42:06.275Z,9.95
2022-12-25T13:47:21.590Z,9.79
2022-12-25T13:52:35.254Z,9.75
2022-12-25T13:57:43.723Z,9.67
2022-12-25T14:02:46.404Z,9.64
2022-12-25T14:07:55.980Z,10.09
2022-12-25T14:13:01.210Z,10.28
2022-12-25T14:18:03.021Z,10.24
2022-12-25T14:23:05.236Z,10.30
2022-12-25T14:28:09.884Z,10.33
2022-12-25T14:33:21.209Z,10.30
2022-12-25T14:38:34.926Z,10.28
2022-12-25T14:43:36.663Z,10.11
2022-12-25T14:48:38.283Z,9.92
2022-12-25T14:53:47.705Z,9.76
2022-12-25T14:58:52.705Z,9.58
2022-12-25T15:04:06.055Z,9.67
2022-12-25T15:09:16.601Z,9.44
2022-12-25T15:14:18.841Z,9.21
2022-12-25T15:19:30.407Z,8.78
2022-12-25T15:24:35.058Z,8.62
2022-12-25T15:30:08.803Z,8.52
2022-12-25T15:34:58.242Z,8.54
2022-12-25T15:39:59.892Z,8.52
2022-12-25T15:45:01.508Z,8.40
2022-12-25T15:50:03.293Z,8.35
2022-12-25T15:55:06.418Z,8.38
2022-12-25T16:00:13.495Z,8.26
2022-12-25T16:05:15.399Z,8.12
2022-12-25T16:10:19.289Z,8.31
2022-12-25T16:15:20.885Z,8.32
2022-12-25T16:20:22.502Z,8.39
2022-12-25T16:25:24.263Z,8.24
2022-12-25T16:30:25.928Z,8.32
2022-12-25T16:35:27.611Z,8.59
2022-12-25T16:40:29.567Z,8.70
2022-12-25T16:45:31.257Z,9.35
2022-12-25T16:50:32.985Z,9.69
2022-12-25T16:55:36.806Z,9.70
2022-12-25T17:00:38.445Z,9.93
2022-12-25T17:05:40.074Z,9.48
2022-12-25T17:10:41.671Z,10.32
2022-12-25T17:15:48.494Z,10.11
2022-12-25T17:20:53.805Z,10.11
2022-12-25T17:25:55.415Z,9.98
2022-12-25T17:31:05.924Z,10.06
2022-12-25T17:36:13.978Z,9.71
2022-12-25T17:41:17.705Z,9.64
2022-12-25T17:46:22.300Z,10.15
2022-12-25T17:51:26.205Z,9.79
2022-12-25T17:56:27.849Z,9.63
2022-12-25T18:01:29.564Z,10.00
2022-12-25T18:06:31.318Z,10.15
2022-12-25T18:11:33.309Z,10.53
2022-12-25T18:16:37.707Z,10.52
2022-12-25T18:21:39.455Z,10.62
2022-12-25T18:26:41.122Z,10.84
2022-12-25T18:31:42.855Z,10.89
2022-12-25T18:36:44.971Z,10.80
2022-12-25T18:42:05.014Z,10.75
2022-12-25T18:47:06.659Z,11.01
2022-12-25T18:52:49.173Z,11.09
2022-12-25T18:57:32.165Z,11.50
2022-12-25T19:02:33.927Z,11.62
2022-12-25T19:07:36.522Z,11.69
2022-12-25T19:12:38.125Z,11.71
2022-12-25T19:17:39.785Z,11.83
2022-12-25T19:22:41.423Z,11.79
2022-12-25T19:27:43.040Z,11.55
2022-12-25T19:32:44.676Z,11.41
2022-12-25T19:37:46.269Z,11.38
2022-12-25T19:42:47.889Z,11.56
2022-12-25T19:47:49.515Z,11.79
2022-12-25T19:52:51.134Z,12.10
2022-12-25T19:57:52.828Z,12.12
2022-12-25T20:02:54.580Z,12.30
2022-12-25T20:07:57.210Z,12.37
2022-12-25T20:12:58.821Z,12.35
2022-12-25T20:18:01.679Z,12.41
2022-12-25T20:23:03.732Z,12.43
2022-12-25T20:28:05.341Z,12.40
2022-12-25T20:33:07.618Z,12.33
2022-12-25T20:38:09.232Z,12.31
2022-12-25T20:43:10.837Z,12.30
2022-12-25T20:48:13.116Z,12.26
2022-12-25T20:53:15.021Z,12.28
2022-12-25T20:58:17.868Z,12.42
2022-12-25T21:03:19.602Z,12.48
2022-12-25T21:08:24.906Z,12.46
2022-12-25T21:13:29.594Z,12.47
2022-12-25T21:18:31.296Z,12.56
2022-12-25T21:23:35.721Z,12.44
2022-12-25T21:28:37.492Z,12.43
2022-12-25T21:33:55.160Z,12.55
2022-12-25T21:38:59.428Z,12.55
2022-12-25T21:44:01.455Z,12.57
2022-12-25T21:49:03.218Z,12.56
2022-12-25T21:54:05.784Z,12.56
2022-12-25T21:59:08.915Z,12.53
2022-12-25T22:04:11.599Z,12.51
2022-12-25T22:09:13.220Z,12.64
2022-12-25T22:14:51.404Z,12.61
2022-12-25T22:19:55.780Z,12.58
2022-12-25T22:25:00.704Z,12.52
2022-12-25T22:30:02.499Z,12.77
2022-12-25T22:35:04.432Z,12.71
2022-12-25T22:40:07.483Z,12.58
2022-12-25T22:45:09.654Z,12.60
2022-12-25T22:50:12.937Z,12.66
2022-12-25T22:55:17.420Z,12.82
2022-12-25T23:00:19.096Z,12.90
2022-12-25T23:05:20.671Z,12.95
2022-12-25T23:10:22.312Z,12.69
2022-12-25T23:15:24.074Z,12.52
2022-12-25T23:20:44.684Z,12.79
2022-12-25T23:26:06.720Z,12.78
2022-12-25T23:31:09.421Z,12.73
2022-12-25T23:36:11.206Z,12.72
2022-12-25T23:41:12.803Z,12.71
2022-12-25T23:46:15.164Z,12.88
2022-12-25T23:51:16.861Z,12.66
2022-12-25T23:56:18.477Z,12.65
